createdAt,value
2018-08-30T00:02:07.975Z,83.00
2018-08-30T00:10:41.262Z,83.60
2018-08-30T00:16:25.371Z,87.30
2018-08-30T00:19:23.372Z,89.40
2018-08-30T00:22:09.668Z,89.70
2018-08-30T00:24:37.212Z,89.80
2018-08-30T00:33:06.866Z,90.70
2018-08-30T00:44:32.487Z,90.30
2018-08-30T00:47:20.612Z,90.10
2018-08-30T00:49:48.849Z,90.70
2018-08-30T00:52:19.205Z,89.40
2018-08-30T00:57:48.701Z,89.00
2018-08-30T01:00:16.187Z,89.20
2018-08-30T01:02:45.026Z,89.00
2018-08-30T01:05:13.251Z,87.90
2018-08-30T01:07:40.822Z,88.10
2018-08-30T01:10:08.430Z,87.60
2018-08-30T01:15:44.672Z,86.10
2018-08-30T01:18:12.225Z,86.00
2018-08-30T01:20:39.771Z,85.30
2018-08-30T01:23:07.277Z,85.50
2018-08-30T01:25:34.822Z,86.30
2018-08-30T01:28:02.441Z,85.00
2018-08-30T01:30:52.553Z,84.70
2018-08-30T01:33:20.169Z,85.30
2018-08-30T01:35:48.077Z,85.20
2018-08-30T01:38:15.686Z,85.90
2018-08-30T01:40:43.266Z,85.00
2018-08-30T01:43:10.892Z,84.70
2018-08-30T01:51:55.943Z,85.20
2018-08-30T01:54:46.341Z,85.10
2018-08-30T01:57:27.177Z,85.00
2018-08-30T01:59:54.797Z,85.40
2018-08-30T02:02:22.387Z,84.60
2018-08-30T02:04:57.969Z,84.60
2018-08-30T02:07:25.461Z,85.80
2018-08-30T02:09:52.872Z,84.40
2018-08-30T02:12:28.487Z,85.10
2018-08-30T02:14:56.077Z,85.20
2018-08-30T02:20:25.746Z,85.90
2018-08-30T02:22:56.218Z,85.80
2018-08-30T02:25:23.724Z,85.40
2018-08-30T02:27:51.153Z,85.00
2018-08-30T02:30:18.687Z,85.30
2018-08-30T02:35:50.293Z,84.40
2018-08-30T02:38:32.218Z,84.70
2018-08-30T02:41:00.948Z,85.20
2018-08-30T02:46:34.229Z,84.70
2018-08-30T02:52:07.204Z,84.40
2018-08-30T02:54:34.782Z,83.70
2018-08-30T03:03:08.246Z,84.20
2018-08-30T03:08:28.636Z,84.00
2018-08-30T03:14:02.431Z,83.70
2018-08-30T03:19:55.049Z,83.30
2018-08-30T03:28:32.759Z,83.70
2018-08-30T03:34:05.341Z,83.10
2018-08-30T03:36:33.023Z,83.80
2018-08-30T03:42:13.459Z,83.50
2018-08-30T03:44:41.006Z,82.10
2018-08-30T03:47:08.502Z,83.10
2018-08-30T03:49:45.951Z,84.30
2018-08-30T03:52:13.556Z,84.80
2018-08-30T03:54:41.153Z,83.70
2018-08-30T04:12:23.945Z,84.80
2018-08-30T04:14:57.110Z,83.80
2018-08-30T04:29:21.356Z,85.00
2018-08-30T04:34:22.615Z,84.50
2018-08-30T04:39:53.353Z,84.00
2018-08-30T04:42:20.860Z,84.90
2018-08-30T04:44:48.329Z,84.80
2018-08-30T04:47:15.841Z,83.60
2018-08-30T04:52:54.596Z,84.10
2018-08-30T04:55:31.322Z,84.60
2018-08-30T04:57:58.842Z,84.60
2018-08-30T05:06:22.454Z,85.50
2018-08-30T05:15:14.768Z,85.00
2018-08-30T05:17:50.180Z,85.50
2018-08-30T05:20:17.670Z,85.80
2018-08-30T05:22:45.226Z,87.00
2018-08-30T05:25:14.065Z,87.80
2018-08-30T05:27:41.714Z,87.90
2018-08-30T05:30:09.446Z,88.10
2018-08-30T05:32:37.921Z,87.70
2018-08-30T05:35:05.432Z,88.60
2018-08-30T05:37:33.830Z,88.10
2018-08-30T05:40:10.384Z,89.50
2018-08-30T05:42:38.904Z,89.70
2018-08-30T05:45:06.582Z,89.10
2018-08-30T05:47:36.902Z,89.40
2018-08-30T05:50:05.715Z,88.50
2018-08-30T05:52:33.337Z,87.80
2018-08-30T05:55:01.566Z,88.40
2018-08-30T05:57:29.193Z,89.20
2018-08-30T05:59:56.808Z,88.90
2018-08-30T06:02:24.473Z,89.10
2018-08-30T06:04:51.889Z,89.80
2018-08-30T06:07:19.575Z,88.90
2018-08-30T06:09:46.941Z,88.90
2018-08-30T06:12:14.436Z,88.40
2018-08-30T06:14:42.106Z,88.10
2018-08-30T06:17:09.691Z,88.60
2018-08-30T06:19:37.240Z,88.60
2018-08-30T06:22:04.866Z,88.30
2018-08-30T06:24:32.431Z,88.10
2018-08-30T06:27:00.695Z,87.60
2018-08-30T06:29:28.137Z,87.70
2018-08-30T06:31:55.687Z,87.20
2018-08-30T06:34:23.144Z,87.50
2018-08-30T06:36:50.740Z,87.00
2018-08-30T06:39:18.315Z,86.30
2018-08-30T06:41:45.805Z,86.20
2018-08-30T06:44:13.359Z,86.90
2018-08-30T06:46:40.901Z,86.50
2018-08-30T06:49:08.433Z,86.20
2018-08-30T06:51:35.865Z,86.20
2018-08-30T06:54:03.416Z,86.70
2018-08-30T06:56:31.078Z,87.00
2018-08-30T06:58:58.447Z,87.40
2018-08-30T07:01:26.156Z,87.30
2018-08-30T07:03:53.707Z,86.50
2018-08-30T07:06:21.242Z,86.60
2018-08-30T07:08:48.800Z,86.90
2018-08-30T07:11:16.414Z,87.10
2018-08-30T07:13:43.855Z,86.30
2018-08-30T07:16:11.479Z,86.70
2018-08-30T07:18:38.964Z,86.60
2018-08-30T07:21:06.420Z,86.40
2018-08-30T07:23:33.970Z,86.30
2018-08-30T07:26:01.581Z,86.80
2018-08-30T07:28:29.112Z,85.50
2018-08-30T07:30:56.588Z,85.30
2018-08-30T07:33:24.087Z,86.40
2018-08-30T07:35:51.772Z,85.90
2018-08-30T07:38:19.272Z,85.90
2018-08-30T07:40:46.828Z,85.20
2018-08-30T07:43:14.236Z,85.00
2018-08-30T07:45:41.829Z,85.20
2018-08-30T07:48:09.439Z,85.20
2018-08-30T07:50:36.893Z,85.20
2018-08-30T07:53:04.412Z,84.80
2018-08-30T07:55:31.866Z,84.20
2018-08-30T07:57:59.360Z,84.10
2018-08-30T08:00:26.884Z,84.30
2018-08-30T08:02:54.903Z,83.90
2018-08-30T08:05:22.685Z,84.30
2018-08-30T08:07:50.282Z,83.60
2018-08-30T08:10:17.731Z,83.40
2018-08-30T08:12:45.369Z,82.60
2018-08-30T08:15:12.731Z,82.20
2018-08-30T08:17:40.267Z,81.90
2018-08-30T08:20:07.762Z,81.90
2018-08-30T08:22:35.217Z,82.60
2018-08-30T08:25:02.651Z,82.10
2018-08-30T08:27:30.148Z,80.60
2018-08-30T08:29:57.695Z,80.20
2018-08-30T08:32:25.192Z,79.10
2018-08-30T08:34:52.673Z,77.40
2018-08-30T08:37:20.162Z,77.50
2018-08-30T08:39:47.679Z,77.70
2018-08-30T08:42:15.259Z,74.40
2018-08-30T08:44:42.732Z,75.20
2018-08-30T08:47:10.212Z,72.50
2018-08-30T08:49:37.823Z,73.00
2018-08-30T08:52:05.512Z,73.20
2018-08-30T08:54:33.160Z,72.70
2018-08-30T08:57:00.665Z,72.00
2018-08-30T08:59:28.068Z,71.40
2018-08-30T09:01:55.791Z,71.40
2018-08-30T09:04:23.241Z,70.20
2018-08-30T09:06:50.795Z,70.20
2018-08-30T09:09:18.246Z,70.70
2018-08-30T09:11:45.802Z,68.40
2018-08-30T09:14:13.286Z,68.50
2018-08-30T09:16:40.872Z,69.90
2018-08-30T09:19:08.307Z,70.00
2018-08-30T09:21:35.843Z,68.60
2018-08-30T09:24:03.464Z,67.00
2018-08-30T09:26:30.944Z,67.50
2018-08-30T09:28:58.413Z,67.90
2018-08-30T09:31:25.957Z,67.70
2018-08-30T09:33:53.473Z,66.40
2018-08-30T09:36:21.433Z,66.10
2018-08-30T09:38:48.876Z,66.20
2018-08-30T09:41:16.564Z,65.60
2018-08-30T09:43:44.245Z,64.60
2018-08-30T09:46:11.780Z,65.20
2018-08-30T09:48:39.278Z,64.00
2018-08-30T09:51:06.819Z,63.80
2018-08-30T09:53:34.270Z,64.40
2018-08-30T09:56:02.214Z,64.40
2018-08-30T09:58:29.668Z,63.50
2018-08-30T10:01:03.229Z,63.70
2018-08-30T10:03:30.850Z,63.70
2018-08-30T10:05:58.351Z,63.10
2018-08-30T10:08:26.743Z,62.20
2018-08-30T10:10:55.486Z,62.00
2018-08-30T10:13:23.018Z,62.00
2018-08-30T10:15:50.604Z,60.40
2018-08-30T10:18:18.045Z,61.40
2018-08-30T10:20:45.587Z,61.10
2018-08-30T10:23:13.025Z,60.70
2018-08-30T10:25:40.640Z,60.70
2018-08-30T10:28:08.138Z,60.40
2018-08-30T10:30:35.539Z,60.90
2018-08-30T10:33:03.083Z,58.90
2018-08-30T10:35:30.610Z,57.20
2018-08-30T10:37:58.176Z,56.40
2018-08-30T10:40:25.651Z,55.80
2018-08-30T10:43:06.117Z,55.40
2018-08-30T10:45:34.003Z,55.60
2018-08-30T10:48:01.533Z,55.60
2018-08-30T10:53:39.572Z,53.20
2018-08-30T10:56:09.542Z,50.20
2018-08-30T11:01:26.263Z,50.20
2018-08-30T11:04:12.668Z,50.60
2018-08-30T11:06:44.132Z,50.20
2018-08-30T11:09:11.664Z,50.00
2018-08-30T11:11:39.211Z,49.00
2018-08-30T11:14:06.704Z,48.40
2018-08-30T11:16:34.137Z,48.70
2018-08-30T11:19:01.764Z,48.20
2018-08-30T11:21:29.142Z,49.50
2018-08-30T11:23:56.573Z,48.20
2018-08-30T11:26:34.990Z,48.30
2018-08-30T11:29:02.738Z,47.70
2018-08-30T11:31:30.200Z,48.90
2018-08-30T11:33:57.627Z,50.30
2018-08-30T11:36:25.173Z,49.70
2018-08-30T11:38:52.719Z,50.60
2018-08-30T11:41:20.210Z,50.50
2018-08-30T11:43:51.813Z,50.20
2018-08-30T11:46:36.899Z,50.40
2018-08-30T11:49:04.466Z,50.90
2018-08-30T11:51:31.970Z,50.00
2018-08-30T11:53:59.360Z,49.30
2018-08-30T11:56:26.817Z,49.10
2018-08-30T11:58:54.303Z,49.40
2018-08-30T12:01:21.776Z,49.10
2018-08-30T12:03:49.414Z,48.20
2018-08-30T12:06:16.911Z,48.00
2018-08-30T12:08:44.388Z,47.10
2018-08-30T12:11:12.060Z,46.70
2018-08-30T12:13:39.552Z,45.70
2018-08-30T12:16:06.925Z,44.30
2018-08-30T12:18:34.503Z,44.50
2018-08-30T12:21:02.322Z,44.70
2018-08-30T12:23:30.011Z,44.30
2018-08-30T12:25:57.540Z,44.70
2018-08-30T12:28:26.002Z,44.50
2018-08-30T12:30:54.881Z,44.00
2018-08-30T12:33:22.419Z,42.60
2018-08-30T12:35:50.865Z,43.20
2018-08-30T12:38:18.125Z,43.30
2018-08-30T12:40:51.191Z,43.90
2018-08-30T12:43:18.684Z,44.30
2018-08-30T12:45:46.106Z,43.80
2018-08-30T12:48:13.586Z,42.70
2018-08-30T12:50:41.166Z,42.70
2018-08-30T12:53:08.940Z,43.10
2018-08-30T12:55:36.620Z,43.10
2018-08-30T12:58:04.881Z,43.20
2018-08-30T13:00:32.259Z,43.00
2018-08-30T13:02:59.700Z,43.00
2018-08-30T13:05:27.367Z,43.00
2018-08-30T13:07:54.602Z,43.00
2018-08-30T13:10:22.172Z,43.00
2018-08-30T13:12:49.623Z,43.50
2018-08-30T13:15:17.283Z,44.50
2018-08-30T13:17:44.639Z,45.10
2018-08-30T13:20:11.973Z,45.40
2018-08-30T13:22:39.751Z,46.70
2018-08-30T13:25:07.025Z,46.70
2018-08-30T13:27:34.388Z,47.70
2018-08-30T13:30:02.001Z,48.40
2018-08-30T13:32:29.579Z,48.50
2018-08-30T13:34:57.183Z,49.30
2018-08-30T13:37:24.594Z,49.90
2018-08-30T13:39:52.542Z,50.50
2018-08-30T13:42:19.885Z,52.50
2018-08-30T13:44:47.471Z,55.70
2018-08-30T13:47:21.822Z,58.00
2018-08-30T13:52:24.950Z,64.50
2018-08-30T13:54:52.416Z,66.90
2018-08-30T13:57:20.247Z,67.50
2018-08-30T13:59:47.869Z,69.20
2018-08-30T14:02:15.044Z,69.00
2018-08-30T14:04:42.292Z,69.60
2018-08-30T14:07:09.861Z,70.30
2018-08-30T14:09:37.740Z,71.20
2018-08-30T14:12:05.542Z,69.90
2018-08-30T14:14:42.826Z,70.50
2018-08-30T14:17:10.494Z,71.00
2018-08-30T14:19:38.485Z,72.70
2018-08-30T14:22:06.670Z,72.00
2018-08-30T14:24:35.560Z,71.70
2018-08-30T14:27:05.649Z,71.60
2018-08-30T14:29:33.247Z,74.00
2018-08-30T14:32:02.533Z,72.60
2018-08-30T14:34:37.639Z,72.00
2018-08-30T14:37:05.993Z,72.20
2018-08-30T14:39:33.396Z,69.90
2018-08-30T14:42:03.010Z,71.30
2018-08-30T14:44:30.692Z,70.30
2018-08-30T14:46:57.957Z,69.40
2018-08-30T14:49:25.425Z,68.00
2018-08-30T14:51:52.933Z,68.10
2018-08-30T14:54:20.499Z,67.80
2018-08-30T14:56:48.445Z,67.40
2018-08-30T14:59:15.843Z,67.50
2018-08-30T15:01:43.197Z,68.20
2018-08-30T15:04:10.806Z,67.90
2018-08-30T15:06:38.261Z,67.80
2018-08-30T15:09:06.783Z,68.10
2018-08-30T15:11:34.291Z,66.50
2018-08-30T15:14:01.823Z,66.30
2018-08-30T15:16:29.290Z,67.10
2018-08-30T15:18:56.711Z,67.40
2018-08-30T15:21:24.314Z,66.10
2018-08-30T15:23:51.724Z,65.90
2018-08-30T15:26:19.264Z,65.30
2018-08-30T15:28:46.735Z,67.70
2018-08-30T15:31:14.209Z,66.70
2018-08-30T15:33:41.677Z,65.90
2018-08-30T15:36:09.166Z,67.50
2018-08-30T15:38:36.719Z,66.30
2018-08-30T15:41:04.310Z,67.10
2018-08-30T15:43:31.653Z,65.90
2018-08-30T15:45:59.155Z,65.40
2018-08-30T15:48:26.685Z,67.50
2018-08-30T15:50:56.418Z,67.70
2018-08-30T15:53:24.005Z,66.10
2018-08-30T15:55:51.585Z,65.80
2018-08-30T15:58:18.971Z,67.40
2018-08-30T16:00:46.404Z,67.80
2018-08-30T16:03:13.860Z,67.50
2018-08-30T16:05:41.595Z,67.70
2018-08-30T16:08:09.106Z,68.00
2018-08-30T16:10:36.586Z,66.60
2018-08-30T16:13:04.240Z,66.40
2018-08-30T16:15:31.769Z,66.90
2018-08-30T16:17:59.294Z,67.60
2018-08-30T16:20:26.801Z,67.70
2018-08-30T16:23:03.151Z,68.10
2018-08-30T16:25:30.686Z,68.30
2018-08-30T16:27:59.161Z,67.20
2018-08-30T16:30:27.344Z,68.00
2018-08-30T16:32:54.813Z,68.30
2018-08-30T16:35:22.469Z,68.70
2018-08-30T16:37:49.835Z,69.40
2018-08-30T16:40:17.355Z,68.80
2018-08-30T16:42:44.888Z,67.00
2018-08-30T16:45:12.391Z,66.20
2018-08-30T16:47:40.243Z,66.30
2018-08-30T16:50:07.665Z,65.40
2018-08-30T16:52:35.288Z,65.50
2018-08-30T16:55:02.845Z,65.00
2018-08-30T16:57:30.244Z,65.50
2018-08-30T16:59:57.722Z,65.20
2018-08-30T17:02:25.376Z,64.90
2018-08-30T17:04:52.695Z,64.60
2018-08-30T17:07:20.295Z,64.70
2018-08-30T17:09:47.803Z,65.20
2018-08-30T17:12:15.373Z,65.50
2018-08-30T17:14:42.978Z,66.20
2018-08-30T17:17:10.857Z,66.00
2018-08-30T17:19:38.261Z,66.00
2018-08-30T17:22:05.795Z,65.40
2018-08-30T17:24:33.416Z,65.00
2018-08-30T17:27:00.937Z,65.70
2018-08-30T17:29:28.386Z,65.50
2018-08-30T17:31:55.966Z,64.70
2018-08-30T17:34:23.491Z,64.90
2018-08-30T17:36:50.929Z,65.30
2018-08-30T17:39:18.454Z,65.20
2018-08-30T17:41:45.877Z,65.00
2018-08-30T17:44:13.377Z,63.80
2018-08-30T17:46:40.901Z,64.60
2018-08-30T17:49:08.406Z,65.00
2018-08-30T17:51:36.050Z,64.70
2018-08-30T17:54:03.527Z,64.60
2018-08-30T17:56:31.008Z,64.70
2018-08-30T17:58:58.617Z,65.00
2018-08-30T18:01:26.321Z,65.70
2018-08-30T18:03:53.739Z,66.30
2018-08-30T18:06:21.219Z,66.30
2018-08-30T18:08:48.745Z,65.30
2018-08-30T18:11:16.252Z,64.60
2018-08-30T18:13:43.727Z,64.60
2018-08-30T18:16:11.290Z,65.30
2018-08-30T18:18:38.866Z,65.20
2018-08-30T18:21:06.379Z,65.30
2018-08-30T18:23:33.867Z,65.80
2018-08-30T18:26:01.335Z,65.80
2018-08-30T18:28:28.836Z,66.10
2018-08-30T18:30:56.320Z,66.10
2018-08-30T18:33:23.822Z,66.30
2018-08-30T18:35:51.337Z,66.00
2018-08-30T18:38:18.931Z,65.50
2018-08-30T18:40:46.438Z,64.70
2018-08-30T18:43:13.831Z,65.40
2018-08-30T18:45:41.232Z,65.20
2018-08-30T18:48:08.673Z,65.40
2018-08-30T18:50:36.047Z,65.10
2018-08-30T18:53:03.513Z,64.80
2018-08-30T18:55:31.073Z,65.40
2018-08-30T18:57:58.591Z,65.50
2018-08-30T19:00:26.015Z,65.70
2018-08-30T19:02:53.542Z,66.60
2018-08-30T19:05:21.041Z,68.60
2018-08-30T19:07:48.658Z,67.80
2018-08-30T19:10:16.190Z,67.00
2018-08-30T19:12:43.685Z,67.00
2018-08-30T19:15:16.835Z,67.30
2018-08-30T19:17:49.796Z,67.90
2018-08-30T19:20:17.238Z,67.90
2018-08-30T19:22:44.824Z,67.60
2018-08-30T19:25:12.805Z,68.10
2018-08-30T19:27:40.380Z,68.20
2018-08-30T19:30:13.537Z,68.40
2018-08-30T19:32:41.016Z,69.50
2018-08-30T19:35:14.109Z,70.50
2018-08-30T19:37:41.552Z,69.80
2018-08-30T19:40:13.611Z,69.80
2018-08-30T19:42:41.097Z,69.40
2018-08-30T19:45:08.537Z,70.00
2018-08-30T19:47:36.060Z,70.50
2018-08-30T19:50:03.667Z,71.30
2018-08-30T19:52:31.189Z,71.20
2018-08-30T19:54:58.785Z,71.80
2018-08-30T19:57:26.182Z,72.60
2018-08-30T19:59:53.612Z,73.30
2018-08-30T20:02:21.345Z,74.10
2018-08-30T20:04:48.702Z,75.00
2018-08-30T20:07:16.167Z,75.20
2018-08-30T20:09:43.774Z,74.80
2018-08-30T20:12:11.598Z,75.30
2018-08-30T20:14:39.025Z,75.20
2018-08-30T20:17:06.530Z,75.10
2018-08-30T20:19:34.036Z,75.10
2018-08-30T20:22:01.593Z,75.30
2018-08-30T20:24:29.215Z,75.60
2018-08-30T20:26:56.954Z,76.00
2018-08-30T20:29:24.405Z,76.10
2018-08-30T20:31:52.014Z,76.60
2018-08-30T20:34:19.548Z,76.50
2018-08-30T20:36:47.113Z,76.80
2018-08-30T20:39:14.722Z,77.10
2018-08-30T20:41:42.340Z,77.00
2018-08-30T20:44:09.815Z,77.10
2018-08-30T20:46:37.404Z,77.30
2018-08-30T20:49:05.143Z,78.60
2018-08-30T20:51:32.459Z,79.00
2018-08-30T20:53:59.925Z,79.10
2018-08-30T20:56:27.435Z,79.00
2018-08-30T20:58:54.946Z,78.60
2018-08-30T21:01:22.485Z,78.50
2018-08-30T21:03:50.104Z,79.00
2018-08-30T21:06:17.561Z,79.00
2018-08-30T21:08:44.987Z,79.30
2018-08-30T21:11:12.479Z,79.70
2018-08-30T21:13:39.954Z,79.00
2018-08-30T21:16:07.476Z,78.80
2018-08-30T21:18:35.028Z,78.90
2018-08-30T21:21:02.642Z,79.00
2018-08-30T21:23:30.046Z,79.30
2018-08-30T21:25:57.430Z,79.40
2018-08-30T21:28:24.759Z,79.70
2018-08-30T21:30:52.517Z,79.70
2018-08-30T21:33:19.953Z,79.60
2018-08-30T21:35:47.564Z,79.60
2018-08-30T21:38:15.223Z,80.40
2018-08-30T21:40:42.640Z,80.00
2018-08-30T21:43:10.268Z,80.00
2018-08-30T21:45:37.773Z,79.80
2018-08-30T21:48:05.541Z,79.50
2018-08-30T21:50:33.081Z,79.60
2018-08-30T21:53:00.557Z,79.80
2018-08-30T21:55:28.038Z,80.00
2018-08-30T21:57:55.523Z,79.70
2018-08-30T22:00:29.674Z,76.40
2018-08-30T22:02:57.112Z,75.00
2018-08-30T22:05:24.640Z,74.40
2018-08-30T22:07:52.092Z,74.30
2018-08-30T22:10:19.482Z,72.90
2018-08-30T22:12:47.014Z,72.20
2018-08-30T22:15:14.562Z,71.60
2018-08-30T22:17:41.982Z,70.70
2018-08-30T22:20:09.512Z,71.10
2018-08-30T22:22:36.987Z,70.80
2018-08-30T22:25:04.485Z,71.30
2018-08-30T22:27:32.083Z,71.50
2018-08-30T22:29:59.574Z,71.00
2018-08-30T22:32:27.172Z,71.50
2018-08-30T22:34:54.786Z,71.50
2018-08-30T22:37:22.300Z,71.40
2018-08-30T22:39:49.953Z,70.60
2018-08-30T22:42:17.513Z,70.20
2018-08-30T22:44:45.053Z,68.40
2018-08-30T22:47:12.555Z,68.20
2018-08-30T22:49:39.995Z,67.40
2018-08-30T22:52:07.469Z,66.80
2018-08-30T22:54:34.941Z,66.20
2018-08-30T22:57:02.449Z,65.30
2018-08-30T22:59:29.977Z,65.00
2018-08-30T23:01:57.436Z,64.30
2018-08-30T23:04:24.969Z,64.30
2018-08-30T23:06:52.491Z,64.40
2018-08-30T23:09:19.975Z,64.70
2018-08-30T23:11:47.453Z,65.30
2018-08-30T23:14:14.816Z,65.20
2018-08-30T23:16:42.270Z,65.80
2018-08-30T23:19:09.642Z,66.50
2018-08-30T23:21:37.063Z,65.60
2018-08-30T23:24:05.123Z,65.20
2018-08-30T23:26:32.588Z,65.00
2018-08-30T23:29:00.018Z,64.70
2018-08-30T23:31:27.445Z,64.20
2018-08-30T23:33:54.961Z,64.10
2018-08-30T23:36:22.388Z,63.70
2018-08-30T23:38:49.938Z,63.60
2018-08-30T23:41:17.368Z,63.20
2018-08-30T23:43:44.972Z,63.10
2018-08-30T23:46:12.479Z,62.50
2018-08-30T23:48:40.039Z,62.00
2018-08-30T23:51:07.549Z,62.30
2018-08-30T23:53:34.952Z,62.70
2018-08-30T23:56:02.568Z,62.50
2018-08-30T23:58:41.340Z,62.70
